createdAt,value
2022-12-18T00:01:27.790Z,18.00
2022-12-18T00:03:56.706Z,16.80
2022-12-18T00:06:25.751Z,17.63
2022-12-18T00:08:53.842Z,18.13
2022-12-18T00:11:24.658Z,16.60
2022-12-18T00:13:54.187Z,16.40
2022-12-18T00:16:23.760Z,16.17
2022-12-18T00:18:54.091Z,15.03
2022-12-18T00:21:22.227Z,16.23
2022-12-18T00:23:50.777Z,17.00
2022-12-18T00:26:32.265Z,15.53
2022-12-18T00:29:08.938Z,16.63
2022-12-18T00:31:37.107Z,14.57
2022-12-18T00:34:05.039Z,16.37
2022-12-18T00:36:35.463Z,15.53
2022-12-18T00:39:05.806Z,15.97
2022-12-18T00:41:52.727Z,17.20
2022-12-18T00:44:20.693Z,15.43
2022-12-18T00:46:49.480Z,15.73
2022-12-18T00:49:19.898Z,13.40
2022-12-18T00:51:48.776Z,15.73
2022-12-18T00:54:17.108Z,14.80
2022-12-18T00:56:49.501Z,15.67
2022-12-18T00:59:19.944Z,14.53
2022-12-18T01:01:48.262Z,15.30
2022-12-18T01:04:16.337Z,14.93
2022-12-18T01:06:46.754Z,16.10
2022-12-18T01:09:14.508Z,16.83
2022-12-18T01:11:42.125Z,13.70
2022-12-18T01:14:11.949Z,14.87
2022-12-18T01:16:39.620Z,15.33
2022-12-18T01:19:07.435Z,17.43
2022-12-18T01:21:35.017Z,14.63
2022-12-18T01:24:05.426Z,14.43
2022-12-18T01:26:42.628Z,14.83
2022-12-18T01:29:10.230Z,12.53
2022-12-18T01:31:37.981Z,15.47
2022-12-18T01:34:06.731Z,15.63
2022-12-18T01:36:37.995Z,14.53
2022-12-18T01:39:08.215Z,15.30
2022-12-18T01:41:55.200Z,15.17
2022-12-18T01:45:16.890Z,14.47
2022-12-18T01:47:46.595Z,14.53
2022-12-18T01:50:28.462Z,16.10
2022-12-18T01:53:05.091Z,14.37
2022-12-18T01:55:48.375Z,14.97
2022-12-18T01:58:17.547Z,13.87
2022-12-18T02:00:45.178Z,13.60
2022-12-18T02:03:13.367Z,14.17
2022-12-18T02:05:47.004Z,15.77
2022-12-18T02:08:26.592Z,12.07
2022-12-18T02:11:28.677Z,13.27
2022-12-18T02:16:57.402Z,12.23
2022-12-18T02:19:55.941Z,13.03
2022-12-18T02:22:55.405Z,11.83
2022-12-18T02:26:03.002Z,12.20
2022-12-18T02:28:35.044Z,11.67
2022-12-18T02:31:10.984Z,13.00
2022-12-18T02:33:40.054Z,13.40
2022-12-18T02:36:10.345Z,13.00
2022-12-18T02:38:39.246Z,13.80
2022-12-18T02:41:14.432Z,13.70
2022-12-18T02:43:48.563Z,13.30
2022-12-18T02:46:32.395Z,13.03
2022-12-18T02:49:29.305Z,12.83
2022-12-18T02:52:17.409Z,12.33
2022-12-18T02:54:51.459Z,13.10
2022-12-18T02:57:42.553Z,12.80
2022-12-18T03:00:23.031Z,13.00
2022-12-18T03:03:10.818Z,12.53
2022-12-18T03:05:54.960Z,12.00
2022-12-18T03:08:27.343Z,12.77
2022-12-18T03:11:09.251Z,13.53
2022-12-18T03:13:45.942Z,13.87
2022-12-18T03:16:24.201Z,11.40
2022-12-18T03:19:18.137Z,14.77
2022-12-18T03:21:49.315Z,15.17
2022-12-18T03:24:20.246Z,13.35
2022-12-18T03:26:54.859Z,13.33
2022-12-18T03:29:39.768Z,14.23
2022-12-18T03:32:22.295Z,11.90
2022-12-18T03:34:54.951Z,13.17
2022-12-18T03:37:24.370Z,10.70
2022-12-18T03:39:53.705Z,12.33
2022-12-18T03:42:53.948Z,13.77
2022-12-18T03:45:37.257Z,14.47
2022-12-18T03:48:30.109Z,11.30
2022-12-18T03:51:07.237Z,13.63
2022-12-18T03:53:54.040Z,15.10
2022-12-18T03:56:29.380Z,15.27
2022-12-18T03:59:00.363Z,14.00
2022-12-18T04:01:38.750Z,12.43
2022-12-18T04:04:08.302Z,12.63
2022-12-18T04:09:09.539Z,11.93
2022-12-18T04:11:45.675Z,14.27
2022-12-18T04:14:18.161Z,13.10
2022-12-18T04:16:49.265Z,13.93
2022-12-18T04:19:19.986Z,15.00
2022-12-18T04:21:50.864Z,12.83
2022-12-18T04:24:19.042Z,13.40
2022-12-18T04:26:55.810Z,12.43
2022-12-18T04:29:26.907Z,10.87
2022-12-18T04:31:54.445Z,14.33
2022-12-18T04:34:22.736Z,12.43
2022-12-18T04:36:53.285Z,15.83
2022-12-18T04:39:22.725Z,14.17
2022-12-18T04:41:52.507Z,12.57
2022-12-18T04:44:20.069Z,14.27
2022-12-18T04:46:47.559Z,11.80
2022-12-18T04:49:15.814Z,13.43
2022-12-18T04:51:43.266Z,14.33
2022-12-18T04:54:10.696Z,12.23
2022-12-18T04:56:38.308Z,11.57
2022-12-18T04:59:06.215Z,12.77
2022-12-18T05:01:35.047Z,13.93
2022-12-18T05:04:03.660Z,14.43
2022-12-18T05:06:31.190Z,12.63
2022-12-18T05:08:58.891Z,12.23
2022-12-18T05:11:26.312Z,13.17
2022-12-18T05:13:53.801Z,13.70
2022-12-18T05:16:21.508Z,12.70
2022-12-18T05:18:49.245Z,12.47
2022-12-18T05:21:16.756Z,15.57
2022-12-18T05:23:44.499Z,14.70
2022-12-18T05:26:18.373Z,13.00
2022-12-18T05:28:47.233Z,13.10
2022-12-18T05:31:15.133Z,13.43
2022-12-18T05:34:15.542Z,11.73
2022-12-18T05:36:43.075Z,12.47
2022-12-18T05:39:12.263Z,13.17
2022-12-18T05:41:39.736Z,11.97
2022-12-18T05:44:07.244Z,12.60
2022-12-18T05:46:34.695Z,12.27
2022-12-18T05:49:04.889Z,11.77
2022-12-18T05:51:32.697Z,12.33
2022-12-18T05:54:00.106Z,12.03
2022-12-18T05:56:27.595Z,13.10
2022-12-18T05:58:55.592Z,10.37
2022-12-18T06:01:26.537Z,11.03
2022-12-18T06:03:54.538Z,12.50
2022-12-18T06:06:25.424Z,12.73
2022-12-18T06:08:53.300Z,10.00
2022-12-18T06:11:24.149Z,10.40
2022-12-18T06:13:58.687Z,12.60
2022-12-18T06:16:31.128Z,12.90
2022-12-18T06:19:00.163Z,10.85
2022-12-18T06:21:29.065Z,11.03
2022-12-18T06:23:57.042Z,13.73
2022-12-18T06:26:28.526Z,11.73
2022-12-18T06:28:56.621Z,12.67
2022-12-18T06:31:24.333Z,12.40
2022-12-18T06:33:51.841Z,11.90
2022-12-18T06:36:19.517Z,12.40
2022-12-18T06:38:47.091Z,10.80
2022-12-18T06:41:20.496Z,11.07
2022-12-18T06:43:48.181Z,11.60
2022-12-18T06:46:16.001Z,11.53
2022-12-18T06:48:43.537Z,11.20
2022-12-18T06:51:11.848Z,11.17
2022-12-18T06:53:40.263Z,10.63
2022-12-18T06:56:10.525Z,12.13
2022-12-18T06:58:39.423Z,11.67
2022-12-18T07:01:10.421Z,9.97
2022-12-18T07:03:39.415Z,10.30
2022-12-18T07:06:07.440Z,10.63
2022-12-18T07:08:35.031Z,9.87
2022-12-18T07:11:05.613Z,10.10
2022-12-18T07:13:33.336Z,10.27
2022-12-18T07:16:18.424Z,9.67
2022-12-18T07:18:50.145Z,8.20
2022-12-18T07:21:20.559Z,9.73
2022-12-18T07:23:49.445Z,9.00
2022-12-18T07:26:20.185Z,9.80
2022-12-18T07:28:48.374Z,9.60
2022-12-18T07:31:19.624Z,9.60
2022-12-18T07:33:49.568Z,9.77
2022-12-18T07:36:17.806Z,8.07
2022-12-18T07:38:49.339Z,10.10
2022-12-18T07:41:17.396Z,9.63
2022-12-18T07:43:45.031Z,8.20
2022-12-18T07:46:17.000Z,8.70
2022-12-18T07:48:49.849Z,7.20
2022-12-18T07:51:18.735Z,8.93
2022-12-18T07:53:46.473Z,8.87
2022-12-18T07:56:32.137Z,8.80
2022-12-18T07:59:00.692Z,8.23
2022-12-18T08:01:28.538Z,7.97
2022-12-18T08:03:56.247Z,8.90
2022-12-18T08:06:24.573Z,8.30
2022-12-18T08:08:54.464Z,7.07
2022-12-18T08:11:23.046Z,8.63
2022-12-18T08:13:50.681Z,9.47
2022-12-18T08:16:18.842Z,8.67
2022-12-18T08:18:48.208Z,10.60
2022-12-18T08:21:25.466Z,9.53
2022-12-18T08:23:54.537Z,13.20
2022-12-18T08:26:22.230Z,11.27
2022-12-18T08:28:51.084Z,11.70
2022-12-18T08:31:19.917Z,12.47
2022-12-18T08:33:51.447Z,10.33
2022-12-18T08:36:19.002Z,9.37
2022-12-18T08:38:47.560Z,12.33
2022-12-18T08:41:17.054Z,9.73
2022-12-18T08:44:03.057Z,16.17
2022-12-18T08:46:36.377Z,20.87
2022-12-18T08:49:05.107Z,11.13
2022-12-18T08:51:33.014Z,11.13
2022-12-18T08:54:00.607Z,12.00
2022-12-18T08:56:28.237Z,9.10
2022-12-18T08:58:56.462Z,9.67
2022-12-18T09:01:24.519Z,9.73
2022-12-18T09:03:52.179Z,11.13
2022-12-18T09:06:21.078Z,10.10
2022-12-18T09:08:49.107Z,11.20
2022-12-18T09:11:25.952Z,9.90
2022-12-18T09:13:55.039Z,9.20
2022-12-18T09:16:27.431Z,10.23
2022-12-18T09:19:03.258Z,9.37
2022-12-18T09:21:35.803Z,8.87
2022-12-18T09:24:08.566Z,9.20
2022-12-18T09:26:37.997Z,9.05
2022-12-18T09:29:08.323Z,9.00
2022-12-18T09:31:37.307Z,11.23
2022-12-18T09:34:08.057Z,11.13
2022-12-18T09:36:35.618Z,11.23
2022-12-18T09:39:08.117Z,8.87
2022-12-18T09:41:42.157Z,8.33
2022-12-18T09:44:17.845Z,9.33
2022-12-18T09:47:08.233Z,10.53
2022-12-18T09:49:43.309Z,8.83
2022-12-18T09:52:38.560Z,9.67
2022-12-18T09:55:15.665Z,9.13
2022-12-18T09:57:49.143Z,9.60
2022-12-18T10:00:23.105Z,8.00
2022-12-18T10:02:53.351Z,8.10
2022-12-18T10:05:35.627Z,7.87
2022-12-18T10:08:38.662Z,8.00
2022-12-18T10:13:53.587Z,7.43
2022-12-18T10:16:35.581Z,8.33
2022-12-18T10:19:21.589Z,5.80
2022-12-18T10:22:02.525Z,7.20
2022-12-18T10:24:35.873Z,8.07
2022-12-18T10:27:25.561Z,9.43
2022-12-18T10:29:53.187Z,10.17
2022-12-18T10:32:27.736Z,6.80
2022-12-18T10:35:00.822Z,7.83
2022-12-18T10:37:30.943Z,7.77
2022-12-18T10:40:22.204Z,13.07
2022-12-18T10:43:27.989Z,8.67
2022-12-18T10:46:10.354Z,8.83
2022-12-18T10:48:41.127Z,8.48
2022-12-18T10:51:12.275Z,6.93
2022-12-18T10:53:44.130Z,6.38
2022-12-18T10:56:12.593Z,8.20
2022-12-18T10:58:41.467Z,5.80
2022-12-18T11:01:16.974Z,5.97
2022-12-18T11:03:44.545Z,7.07
2022-12-18T11:06:22.899Z,6.40
2022-12-18T11:09:23.426Z,6.23
2022-12-18T11:12:00.406Z,6.33
2022-12-18T11:14:47.389Z,7.77
2022-12-18T11:17:26.690Z,6.37
2022-12-18T11:20:06.371Z,9.40
2022-12-18T11:22:36.450Z,6.67
2022-12-18T11:25:32.582Z,6.17
2022-12-18T11:28:03.261Z,6.17
2022-12-18T11:30:36.662Z,5.47
2022-12-18T11:33:23.023Z,6.00
2022-12-18T11:36:06.456Z,6.60
2022-12-18T11:38:35.866Z,5.70
2022-12-18T11:41:18.748Z,5.10
2022-12-18T11:46:50.381Z,5.85
2022-12-18T11:49:37.400Z,5.47
2022-12-18T11:52:28.571Z,5.33
2022-12-18T11:55:01.121Z,5.03
2022-12-18T11:58:00.756Z,4.68
2022-12-18T12:00:28.594Z,4.43
2022-12-18T12:03:20.179Z,3.93
2022-12-18T12:06:08.470Z,3.90
2022-12-18T12:08:48.255Z,5.43
2022-12-18T12:11:37.306Z,4.30
2022-12-18T12:14:21.860Z,4.37
2022-12-18T12:16:58.619Z,4.57
2022-12-18T12:19:26.375Z,3.90
2022-12-18T12:22:05.569Z,3.70
2022-12-18T12:25:00.829Z,3.43
2022-12-18T12:28:02.265Z,3.90
2022-12-18T12:30:57.558Z,3.83
2022-12-18T12:33:50.178Z,4.60
2022-12-18T12:36:20.406Z,3.55
2022-12-18T12:38:56.569Z,4.27
2022-12-18T12:41:50.801Z,3.40
2022-12-18T12:44:26.706Z,3.47
2022-12-18T12:46:58.735Z,4.23
2022-12-18T12:49:31.193Z,4.10
2022-12-18T12:52:07.451Z,3.60
2022-12-18T12:54:36.612Z,3.60
2022-12-18T12:57:24.684Z,3.43
2022-12-18T13:00:12.636Z,3.10
2022-12-18T13:02:55.988Z,3.70
2022-12-18T13:05:56.257Z,3.10
2022-12-18T13:08:27.416Z,3.30
2022-12-18T13:11:18.096Z,3.37
2022-12-18T13:13:55.893Z,3.30
2022-12-18T13:16:28.423Z,3.03
2022-12-18T13:18:59.945Z,3.72
2022-12-18T13:21:35.190Z,3.07
2022-12-18T13:24:31.894Z,3.53
2022-12-18T13:26:59.413Z,3.77
2022-12-18T13:29:56.348Z,3.53
2022-12-18T13:32:26.257Z,3.13
2022-12-18T13:35:19.689Z,2.83
2022-12-18T13:37:54.267Z,3.43
2022-12-18T13:40:40.330Z,3.37
2022-12-18T13:43:22.571Z,3.53
2022-12-18T13:46:28.471Z,3.45
2022-12-18T13:49:18.448Z,3.80
2022-12-18T13:51:49.898Z,3.03
2022-12-18T13:54:32.016Z,2.88
2022-12-18T13:56:59.570Z,3.80
2022-12-18T13:59:34.392Z,3.03
2022-12-18T14:02:11.508Z,3.40
2022-12-18T14:04:39.834Z,2.87
2022-12-18T14:07:13.673Z,2.90
2022-12-18T14:09:45.107Z,3.33
2022-12-18T14:12:57.934Z,3.33
2022-12-18T14:15:28.485Z,3.57
2022-12-18T14:18:12.886Z,3.43
2022-12-18T14:20:52.672Z,4.03
2022-12-18T14:23:35.706Z,3.60
2022-12-18T14:26:19.498Z,3.97
2022-12-18T14:28:47.551Z,3.63
2022-12-18T14:31:26.233Z,4.40
2022-12-18T14:33:54.558Z,3.20
2022-12-18T15:56:06.369Z,5.38
2022-12-18T15:58:34.528Z,4.67
2022-12-18T16:01:03.343Z,5.00
2022-12-18T16:03:31.920Z,5.37
2022-12-18T16:06:01.554Z,4.67
2022-12-18T16:08:31.209Z,5.03
2022-12-18T16:10:59.653Z,4.73
2022-12-18T16:13:27.105Z,5.30
2022-12-18T16:15:54.737Z,4.13
2022-12-18T16:18:23.376Z,5.07
2022-12-18T16:20:51.167Z,4.73
2022-12-18T16:23:18.605Z,5.77
2022-12-18T16:25:46.178Z,5.53
2022-12-18T16:28:13.689Z,4.40
2022-12-18T16:30:41.555Z,5.17
2022-12-18T16:33:11.753Z,4.03
2022-12-18T16:35:39.375Z,4.83
2022-12-18T16:38:06.893Z,5.27
2022-12-18T16:40:34.745Z,4.60
2022-12-18T16:43:02.490Z,4.17
2022-12-18T16:45:34.282Z,4.50
2022-12-18T16:48:01.809Z,3.75
2022-12-18T16:50:29.754Z,3.83
2022-12-18T16:52:57.283Z,4.77
2022-12-18T16:55:24.766Z,4.87
2022-12-18T16:57:52.455Z,4.27
2022-12-18T17:00:20.148Z,4.30
2022-12-18T17:02:48.673Z,5.40
2022-12-18T17:05:16.345Z,3.83
2022-12-18T17:07:43.884Z,4.33
2022-12-18T17:10:11.443Z,4.10
2022-12-18T17:12:38.902Z,3.60
2022-12-18T17:15:07.052Z,4.23
2022-12-18T17:17:36.745Z,4.00
2022-12-18T17:20:05.349Z,3.80
2022-12-18T17:22:32.910Z,4.30
2022-12-18T17:25:00.374Z,4.20
2022-12-18T17:27:27.858Z,4.23
2022-12-18T17:29:55.949Z,4.53
2022-12-18T17:32:23.419Z,5.50
2022-12-18T17:34:50.936Z,3.97
2022-12-18T17:37:18.615Z,3.93
2022-12-18T17:39:46.079Z,4.07
2022-12-18T17:42:15.442Z,3.80
2022-12-18T17:44:43.863Z,3.93
2022-12-18T17:47:13.339Z,4.53
2022-12-18T17:49:41.012Z,4.17
2022-12-18T17:52:09.007Z,3.97
2022-12-18T17:54:40.021Z,4.60
2022-12-18T17:57:07.762Z,4.13
2022-12-18T17:59:35.293Z,3.73
2022-12-18T18:02:02.989Z,3.90
2022-12-18T18:04:30.621Z,3.80
2022-12-18T18:06:58.174Z,4.63
2022-12-18T18:09:25.862Z,4.03
2022-12-18T18:12:11.744Z,3.90
2022-12-18T18:14:39.507Z,4.70
2022-12-18T18:17:07.382Z,4.20
2022-12-18T18:19:35.042Z,3.90
2022-12-18T18:22:03.059Z,5.07
2022-12-18T18:24:33.350Z,3.77
2022-12-18T18:27:00.900Z,4.20
2022-12-18T18:29:30.643Z,4.00
2022-12-18T18:31:58.607Z,3.83
2022-12-18T18:34:29.467Z,4.80
2022-12-18T18:37:01.051Z,4.30
2022-12-18T18:39:28.754Z,3.97
2022-12-18T18:41:57.243Z,4.37
2022-12-18T18:44:27.792Z,4.30
2022-12-18T18:46:58.912Z,4.73
2022-12-18T18:49:27.976Z,4.13
2022-12-18T18:51:57.726Z,4.07
2022-12-18T18:54:26.941Z,4.23
2022-12-18T18:59:43.063Z,3.63
2022-12-18T19:02:14.024Z,3.70
2022-12-18T19:04:46.160Z,3.20
2022-12-18T19:07:23.894Z,3.80
2022-12-18T19:10:04.029Z,3.73
2022-12-18T19:12:52.155Z,3.30
2022-12-18T19:15:19.861Z,3.70
2022-12-18T19:17:47.969Z,3.47
2022-12-18T19:20:16.769Z,3.77
2022-12-18T19:22:47.917Z,3.97
2022-12-18T19:25:28.374Z,3.77
2022-12-18T19:28:19.274Z,3.60
2022-12-18T19:30:50.403Z,4.43
2022-12-18T19:33:42.011Z,4.17
2022-12-18T19:36:40.770Z,4.27
2022-12-18T19:39:12.281Z,3.87
2022-12-18T19:41:40.718Z,3.87
2022-12-18T19:44:12.124Z,3.53
2022-12-18T19:46:41.972Z,3.87
2022-12-18T19:49:17.542Z,4.10
2022-12-18T19:51:46.172Z,4.17
2022-12-18T19:54:17.273Z,4.37
2022-12-18T19:56:46.122Z,4.10
2022-12-18T19:59:14.353Z,3.60
2022-12-18T20:01:42.168Z,4.33
2022-12-18T20:04:09.938Z,4.30
2022-12-18T20:06:56.639Z,4.20
2022-12-18T20:09:24.336Z,3.93
2022-12-18T20:11:52.675Z,4.57
2022-12-18T20:14:23.574Z,4.97
2022-12-18T20:16:52.641Z,3.90
2022-12-18T20:19:21.064Z,4.30
2022-12-18T20:21:48.852Z,3.87
2022-12-18T20:24:16.685Z,3.47
2022-12-18T20:26:44.501Z,4.10
2022-12-18T20:29:12.068Z,3.90
2022-12-18T20:31:39.653Z,3.90
2022-12-18T20:34:08.356Z,4.20
2022-12-18T20:36:38.813Z,3.87
2022-12-18T20:39:09.888Z,4.57
2022-12-18T20:41:39.246Z,4.67
2022-12-18T20:44:23.152Z,4.87
2022-12-18T20:46:53.817Z,5.60
2022-12-18T20:49:22.002Z,4.03
2022-12-18T20:51:54.853Z,4.90
2022-12-18T20:54:23.785Z,5.30
2022-12-18T20:56:51.766Z,5.03
2022-12-18T20:59:20.004Z,5.73
2022-12-18T21:01:48.827Z,5.53
2022-12-18T21:04:18.489Z,5.00
2022-12-18T21:06:52.388Z,6.27
2022-12-18T21:09:23.854Z,5.97
2022-12-18T21:12:12.378Z,6.17
2022-12-18T21:14:42.331Z,6.03
2022-12-18T21:17:10.096Z,5.90
2022-12-18T21:19:37.958Z,5.73
2022-12-18T21:22:05.992Z,5.53
2022-12-18T21:24:33.727Z,5.90
2022-12-18T21:27:02.079Z,5.43
2022-12-18T21:29:29.834Z,6.13
2022-12-18T21:31:57.415Z,6.20
2022-12-18T21:34:26.985Z,5.43
2022-12-18T21:36:56.463Z,5.87
2022-12-18T21:39:25.704Z,6.47
2022-12-18T21:42:12.592Z,6.43
2022-12-18T21:44:41.924Z,5.83
2022-12-18T21:47:21.776Z,6.00
2022-12-18T21:49:52.893Z,6.27
2022-12-18T21:52:25.713Z,5.47
2022-12-18T21:55:06.676Z,6.67
2022-12-18T21:57:37.387Z,5.97
2022-12-18T22:00:06.579Z,6.87
2022-12-18T22:02:39.865Z,6.37
2022-12-18T22:05:08.160Z,6.63
2022-12-18T22:07:35.637Z,7.10
2022-12-18T22:10:03.212Z,6.73
2022-12-18T22:12:43.573Z,7.13
2022-12-18T22:15:21.308Z,6.47
2022-12-18T22:17:57.412Z,6.13
2022-12-18T22:20:30.045Z,6.57
2022-12-18T22:22:58.022Z,7.93
2022-12-18T22:25:25.627Z,7.83
2022-12-18T22:28:11.398Z,7.10
2022-12-18T22:30:38.887Z,7.73
2022-12-18T22:33:06.443Z,8.07
2022-12-18T22:35:33.952Z,7.47
2022-12-18T22:38:02.190Z,7.40
2022-12-18T22:40:29.877Z,8.57
2022-12-18T22:42:57.762Z,8.37
2022-12-18T22:45:26.912Z,6.77
2022-12-18T22:47:54.730Z,9.57
2022-12-18T22:50:22.317Z,8.47
2022-12-18T22:52:49.902Z,8.27
2022-12-18T22:55:17.394Z,8.07
2022-12-18T22:57:49.195Z,8.73
2022-12-18T23:00:24.134Z,8.60
2022-12-18T23:02:59.942Z,7.50
2022-12-18T23:05:32.030Z,7.83
2022-12-18T23:07:59.835Z,8.33
2022-12-18T23:10:28.270Z,8.57
2022-12-18T23:12:55.883Z,8.20
2022-12-18T23:15:28.040Z,9.00
2022-12-18T23:17:59.682Z,8.55
2022-12-18T23:20:28.038Z,8.13
2022-12-18T23:22:55.726Z,8.77
2022-12-18T23:25:23.452Z,9.37
2022-12-18T23:27:51.412Z,8.27
2022-12-18T23:30:19.074Z,9.57
2022-12-18T23:32:46.653Z,8.50
2022-12-18T23:35:15.791Z,9.40
2022-12-18T23:38:00.480Z,9.70
2022-12-18T23:40:30.165Z,9.27
2022-12-18T23:42:59.276Z,9.13
2022-12-18T23:45:26.696Z,9.43
2022-12-18T23:47:54.193Z,9.50
2022-12-18T23:50:22.162Z,9.27
2022-12-18T23:52:59.439Z,9.17
2022-12-18T23:55:33.181Z,9.57
2022-12-18T23:58:00.718Z,8.93
